createdAt,value
2024-02-13T00:01:31.652Z,150789.06
2024-02-13T00:03:33.374Z,150848.34
2024-02-13T00:05:35.074Z,150824.38
2024-02-13T00:07:38.003Z,150815.56
2024-02-13T00:09:39.660Z,150820.63
2024-02-13T00:11:42.287Z,150860.97
2024-02-13T00:13:43.873Z,150734.88
2024-02-13T00:15:45.540Z,150722.25
2024-02-13T00:17:48.092Z,150620.19
2024-02-13T00:19:50.316Z,150665.56
2024-02-13T00:21:52.040Z,150683.19
2024-02-13T00:23:53.802Z,150688.25
2024-02-13T00:25:55.397Z,150732.38
2024-02-13T00:27:57.215Z,150694.56
2024-02-13T00:29:58.885Z,150660.50
2024-02-13T00:32:00.432Z,150630.28
2024-02-13T00:34:02.171Z,150668.09
2024-02-13T00:36:04.513Z,150642.88
2024-02-13T00:38:06.066Z,150669.34
2024-02-13T00:40:09.496Z,150602.56
2024-02-13T00:42:11.151Z,150658.03
2024-02-13T00:44:12.736Z,150652.97
2024-02-13T00:46:14.307Z,150681.94
2024-02-13T00:48:17.010Z,150616.44
2024-02-13T00:50:18.856Z,150620.19
2024-02-13T00:52:20.589Z,150601.28
2024-02-13T00:54:22.767Z,150598.75
2024-02-13T00:56:24.355Z,150620.19
2024-02-13T00:58:26.138Z,150584.91
2024-02-13T01:00:27.910Z,150611.38
2024-02-13T01:02:29.627Z,150602.56
2024-02-13T01:04:31.521Z,150602.56
2024-02-13T01:06:34.559Z,150607.59
2024-02-13T01:08:36.595Z,150606.34
2024-02-13T01:10:38.417Z,150557.19
2024-02-13T01:12:40.119Z,150595.03
2024-02-13T01:14:41.701Z,150523.19
2024-02-13T01:16:43.246Z,150506.81
2024-02-13T01:18:45.354Z,150550.91
2024-02-13T01:20:47.095Z,150563.50
2024-02-13T01:22:48.687Z,150530.75
2024-02-13T01:24:50.290Z,150571.06
2024-02-13T01:26:51.882Z,150558.44
2024-02-13T01:28:53.429Z,150579.88
2024-02-13T01:30:55.146Z,150514.41
2024-02-13T01:32:56.826Z,150587.44
2024-02-13T01:34:58.739Z,150552.19
2024-02-13T01:37:00.566Z,150598.75
2024-02-13T01:39:02.287Z,150552.19
2024-02-13T01:41:04.075Z,150557.19
2024-02-13T01:43:06.089Z,150618.91
2024-02-13T01:45:08.696Z,150592.50
2024-02-13T01:47:10.359Z,150574.88
2024-02-13T01:49:12.838Z,150607.59
2024-02-13T01:51:16.820Z,150595.03
2024-02-13T01:53:21.327Z,150573.59
2024-02-13T01:55:24.289Z,150607.59
2024-02-13T01:57:25.886Z,150617.66
2024-02-13T01:59:27.868Z,150605.06
2024-02-13T02:01:29.454Z,150538.28
2024-02-13T02:03:35.678Z,150592.50
2024-02-13T02:05:37.878Z,150553.44
2024-02-13T02:07:40.917Z,150578.59
2024-02-13T02:09:43.742Z,150607.59
2024-02-13T02:11:45.469Z,150598.75
2024-02-13T02:13:47.004Z,150584.91
2024-02-13T02:15:48.452Z,150615.19
2024-02-13T02:17:51.198Z,150595.03
2024-02-13T02:19:52.708Z,150584.91
2024-02-13T02:21:54.160Z,150620.19
2024-02-13T02:23:56.165Z,150608.88
2024-02-13T02:25:57.711Z,150608.88
2024-02-13T02:27:59.163Z,150553.44
2024-02-13T02:30:00.879Z,150519.41
2024-02-13T02:32:02.393Z,150544.59
2024-02-13T02:34:04.031Z,150542.09
2024-02-13T02:36:06.285Z,150543.34
2024-02-13T02:38:08.243Z,150563.50
2024-02-13T02:40:10.118Z,150587.44
2024-02-13T02:42:11.930Z,150607.59
2024-02-13T02:44:14.142Z,150600.03
2024-02-13T02:46:15.689Z,150601.28
2024-02-13T02:48:17.321Z,150583.66
2024-02-13T02:50:19.080Z,150635.34
2024-02-13T02:52:20.590Z,150591.22
2024-02-13T02:54:22.083Z,150634.06
2024-02-13T02:56:23.576Z,150616.44
2024-02-13T02:58:25.109Z,150649.19
2024-02-13T03:00:26.998Z,150635.34
2024-02-13T03:02:28.457Z,150588.72
2024-02-13T03:04:29.993Z,150631.56
2024-02-13T03:06:32.434Z,150595.03
2024-02-13T03:08:34.109Z,150665.56
2024-02-13T03:10:35.608Z,150623.97
2024-02-13T03:12:38.154Z,150634.06
2024-02-13T03:14:39.725Z,150600.03
2024-02-13T03:16:41.238Z,150702.09
2024-02-13T03:18:42.921Z,150686.97
2024-02-13T03:20:45.281Z,150739.94
2024-02-13T03:22:46.785Z,150675.66
2024-02-13T03:24:48.436Z,150645.41
2024-02-13T03:26:49.936Z,150601.28
2024-02-13T03:28:51.504Z,150616.44
2024-02-13T03:30:53.019Z,150583.66
2024-02-13T03:32:54.750Z,150626.50
2024-02-13T03:34:57.831Z,150631.56
2024-02-13T03:36:59.829Z,150659.25
2024-02-13T03:39:01.311Z,150612.66
2024-02-13T03:41:02.790Z,150618.91
2024-02-13T03:43:04.767Z,150629.03
2024-02-13T03:45:06.636Z,150612.66
2024-02-13T03:47:08.101Z,150649.19
2024-02-13T03:49:10.368Z,150673.13
2024-02-13T03:51:11.913Z,150674.41
2024-02-13T03:53:13.643Z,150627.75
2024-02-13T03:55:15.488Z,150684.47
2024-02-13T03:57:16.961Z,150697.09
2024-02-13T03:59:18.601Z,150631.56
2024-02-13T04:01:20.118Z,150700.84
2024-02-13T04:03:21.583Z,150700.84
2024-02-13T04:05:23.230Z,150623.97
2024-02-13T04:07:25.036Z,150683.19
2024-02-13T04:09:26.488Z,150747.47
2024-02-13T04:11:28.135Z,150651.72
2024-02-13T04:13:29.739Z,150640.34
2024-02-13T04:15:31.206Z,150640.34
2024-02-13T04:17:32.770Z,150639.06
2024-02-13T04:19:34.395Z,150675.66
2024-02-13T04:21:35.897Z,150670.59
2024-02-13T04:23:37.625Z,150716.00
2024-02-13T04:25:39.199Z,150631.56
2024-02-13T04:27:40.680Z,150681.94
2024-02-13T04:29:42.466Z,150670.59
2024-02-13T04:31:44.020Z,150632.81
2024-02-13T04:33:45.821Z,150634.06
2024-02-13T04:35:47.711Z,150669.34
2024-02-13T04:37:49.193Z,150693.28
2024-02-13T04:39:50.662Z,150729.84
2024-02-13T04:41:52.264Z,150733.63
2024-02-13T04:43:53.759Z,150731.09
2024-02-13T04:45:55.199Z,150732.38
2024-02-13T04:47:56.742Z,150722.25
2024-02-13T04:50:00.941Z,150660.50
2024-02-13T04:52:02.399Z,150655.50
2024-02-13T04:54:04.158Z,150669.34
2024-02-13T04:56:05.849Z,150690.78
2024-02-13T04:58:07.331Z,150649.19
2024-02-13T05:00:09.330Z,150618.91
2024-02-13T05:02:10.858Z,150586.19
2024-02-13T05:04:12.454Z,150578.59
2024-02-13T05:06:14.757Z,150518.13
2024-02-13T05:08:16.856Z,150557.19
2024-02-13T05:10:18.376Z,150560.97
2024-02-13T05:12:19.970Z,150554.72
2024-02-13T05:14:21.598Z,150625.22
2024-02-13T05:16:23.966Z,150611.38
2024-02-13T05:18:25.837Z,150612.66
2024-02-13T05:20:27.527Z,150678.19
2024-02-13T05:22:28.992Z,150660.50
2024-02-13T05:24:30.576Z,150625.22
2024-02-13T05:26:32.129Z,150596.28
2024-02-13T05:28:33.609Z,150644.13
2024-02-13T05:30:35.430Z,150632.81
2024-02-13T05:32:37.309Z,150621.44
2024-02-13T05:34:38.893Z,150632.81
2024-02-13T05:36:40.402Z,150605.06
2024-02-13T05:38:43.455Z,150683.19
2024-02-13T05:40:44.918Z,150690.78
2024-02-13T05:42:46.536Z,150676.94
2024-02-13T05:44:48.256Z,150652.97
2024-02-13T05:46:49.817Z,150721.00
2024-02-13T05:48:51.286Z,150738.69
2024-02-13T05:50:52.933Z,150724.78
2024-02-13T05:52:54.568Z,150709.66
2024-02-13T05:54:56.348Z,150742.41
2024-02-13T05:56:57.932Z,150717.25
2024-02-13T05:59:00.074Z,150694.56
2024-02-13T06:01:01.839Z,150723.53
2024-02-13T06:03:03.811Z,150738.69
2024-02-13T06:05:05.711Z,150716.00
2024-02-13T06:07:07.319Z,150762.59
2024-02-13T06:09:09.040Z,150743.69
2024-02-13T06:11:10.654Z,150748.75
2024-02-13T06:13:12.310Z,150762.59
2024-02-13T06:15:13.851Z,150761.31
2024-02-13T06:17:15.360Z,150756.31
2024-02-13T06:19:17.173Z,150718.53
2024-02-13T06:21:19.211Z,150733.63
2024-02-13T06:23:21.567Z,150751.28
2024-02-13T06:25:23.169Z,150717.25
2024-02-13T06:27:24.761Z,150733.63
2024-02-13T06:29:26.261Z,150678.19
2024-02-13T06:31:32.705Z,150710.94
2024-02-13T06:33:34.428Z,150683.19
2024-02-13T06:35:36.076Z,150693.28
2024-02-13T06:37:37.583Z,150721.00
2024-02-13T06:39:39.187Z,150753.78
2024-02-13T06:41:41.281Z,150734.88
2024-02-13T06:43:42.821Z,150709.66
2024-02-13T06:45:44.581Z,150751.28
2024-02-13T06:47:46.087Z,150751.28
2024-02-13T06:49:47.705Z,150767.66
2024-02-13T06:51:49.294Z,150794.13
2024-02-13T06:53:50.957Z,150787.81
2024-02-13T06:55:52.586Z,150786.56
2024-02-13T06:57:54.089Z,150799.19
2024-02-13T06:59:55.741Z,150766.38
2024-02-13T07:01:57.507Z,150779.03
2024-02-13T07:03:59.072Z,150840.78
2024-02-13T07:06:00.756Z,150847.06
2024-02-13T07:08:02.529Z,150849.59
2024-02-13T07:10:05.078Z,150821.88
2024-02-13T07:12:06.962Z,150823.09
2024-02-13T07:14:08.486Z,150837.00
2024-02-13T07:16:09.980Z,150835.75
2024-02-13T07:18:14.540Z,150840.78
2024-02-13T07:20:16.378Z,150864.72
2024-02-13T07:22:18.392Z,150835.75
2024-02-13T07:24:19.865Z,150874.81
2024-02-13T07:26:21.534Z,150857.19
2024-02-13T07:28:23.037Z,150902.59
2024-02-13T07:30:24.584Z,150897.53
2024-02-13T07:32:26.252Z,150897.53
2024-02-13T07:34:28.261Z,150882.41
2024-02-13T07:36:29.823Z,150924.03
2024-02-13T07:38:31.421Z,150867.25
2024-02-13T07:40:33.241Z,150892.47
2024-02-13T07:42:34.832Z,150871.03
2024-02-13T07:44:36.327Z,150911.38
2024-02-13T07:46:38.221Z,150946.69
2024-02-13T07:48:39.780Z,150942.94
2024-02-13T07:50:41.385Z,150930.31
2024-02-13T07:52:42.916Z,150913.91
2024-02-13T07:54:45.550Z,150975.72
2024-02-13T07:56:47.089Z,150893.75
2024-02-13T07:58:48.629Z,150897.53
2024-02-13T08:00:50.376Z,150863.44
2024-02-13T08:02:51.936Z,150924.03
2024-02-13T08:04:53.705Z,150922.75
2024-02-13T08:06:55.264Z,150896.25
2024-02-13T08:08:56.787Z,150892.47
2024-02-13T08:10:58.581Z,150905.06
2024-02-13T08:13:00.226Z,150857.19
2024-02-13T08:15:01.765Z,150872.28
2024-02-13T08:17:06.365Z,150837.00
2024-02-13T08:19:08.090Z,150787.81
2024-02-13T08:21:09.694Z,150804.19
2024-02-13T08:23:12.599Z,150835.75
2024-02-13T08:25:14.165Z,150855.91
2024-02-13T08:27:15.647Z,150847.06
2024-02-13T08:29:17.234Z,150864.72
2024-02-13T08:31:18.760Z,150879.88
2024-02-13T08:33:20.667Z,150853.38
2024-02-13T08:35:22.530Z,150853.38
2024-02-13T08:37:24.315Z,150892.47
2024-02-13T08:39:25.768Z,150997.16
2024-02-13T08:41:27.452Z,150889.94
2024-02-13T08:43:29.007Z,150874.81
2024-02-13T08:45:30.515Z,150925.25
2024-02-13T08:47:32.089Z,150902.59
2024-02-13T08:49:33.901Z,150916.44
2024-02-13T08:51:37.878Z,150895.00
2024-02-13T08:53:40.504Z,150872.28
2024-02-13T08:55:42.297Z,150942.94
2024-02-13T08:57:43.778Z,150886.16
2024-02-13T08:59:45.404Z,150932.84
2024-02-13T09:01:47.068Z,150811.78
2024-02-13T09:03:49.284Z,150920.25
2024-02-13T09:05:50.880Z,150929.03
2024-02-13T09:07:52.580Z,150992.09
2024-02-13T09:09:54.070Z,150998.44
2024-02-13T09:11:55.646Z,151000.97
2024-02-13T09:13:57.541Z,150965.66
2024-02-13T09:15:58.990Z,151003.50
2024-02-13T09:18:00.757Z,150912.66
2024-02-13T09:20:02.630Z,150987.06
2024-02-13T09:22:04.320Z,150983.31
2024-02-13T09:24:06.595Z,150998.44
2024-02-13T09:26:08.238Z,150937.88
2024-02-13T09:28:09.694Z,150950.47
2024-02-13T09:30:11.797Z,150965.66
2024-02-13T09:32:13.601Z,151046.38
2024-02-13T09:34:15.334Z,150997.16
2024-02-13T09:36:17.273Z,151004.75
2024-02-13T09:38:19.144Z,151036.28
2024-02-13T09:40:21.345Z,151029.94
2024-02-13T09:42:24.851Z,150956.81
2024-02-13T09:44:26.794Z,150992.09
2024-02-13T09:46:28.641Z,150990.84
2024-02-13T09:48:34.497Z,150913.91
2024-02-13T09:50:43.943Z,150917.72
2024-02-13T09:52:53.285Z,150973.19
2024-02-13T09:54:54.877Z,151088.06
2024-02-13T09:56:56.809Z,151003.50
2024-02-13T09:58:59.830Z,150983.31
2024-02-13T10:01:02.135Z,151008.50
2024-02-13T10:03:04.715Z,151058.97
2024-02-13T10:05:08.442Z,150922.75
2024-02-13T10:07:10.125Z,150978.25
2024-02-13T10:09:13.061Z,151000.97
2024-02-13T10:11:14.814Z,151046.38
2024-02-13T10:13:16.435Z,151009.75
2024-02-13T10:15:17.905Z,150942.94
2024-02-13T10:17:19.468Z,151035.00
2024-02-13T10:19:21.061Z,150999.69
2024-02-13T10:21:25.960Z,151085.50
2024-02-13T10:23:27.756Z,151018.63
2024-02-13T10:25:29.306Z,151032.47
2024-02-13T10:27:30.775Z,150975.72
2024-02-13T10:29:44.852Z,151032.47
2024-02-13T10:31:46.767Z,150982.03
2024-02-13T10:33:48.325Z,151043.84
2024-02-13T10:35:50.189Z,151036.28
2024-02-13T10:37:51.820Z,151016.09
2024-02-13T10:39:55.760Z,151041.31
2024-02-13T10:41:59.203Z,151017.34
2024-02-13T10:44:01.126Z,150970.66
2024-02-13T10:46:05.046Z,151016.09
2024-02-13T10:48:31.959Z,151026.19
2024-02-13T10:50:35.370Z,151067.84
2024-02-13T10:52:38.314Z,151004.75
2024-02-13T10:54:44.179Z,151016.09
2024-02-13T10:56:46.721Z,151158.72
2024-02-13T10:58:50.602Z,151149.91
2024-02-13T11:00:53.321Z,151202.91
2024-02-13T11:02:55.361Z,151243.28
2024-02-13T11:04:58.283Z,151234.44
2024-02-13T11:07:00.166Z,151228.16
2024-02-13T11:09:02.810Z,151209.22
2024-02-13T11:11:15.767Z,151199.09
2024-02-13T11:13:20.342Z,151122.13
2024-02-13T11:15:25.513Z,151187.78
2024-02-13T11:17:30.911Z,151144.84
2024-02-13T11:19:47.551Z,151168.84
2024-02-13T11:21:51.994Z,151099.41
2024-02-13T11:23:58.748Z,151157.47
2024-02-13T11:26:01.303Z,151173.84
2024-02-13T11:28:06.005Z,151141.06
2024-02-13T11:30:07.908Z,151226.91
2024-02-13T11:32:09.456Z,151128.47
2024-02-13T11:34:11.835Z,151156.19
2024-02-13T11:36:13.694Z,151168.84
2024-02-13T11:38:18.638Z,151105.72
2024-02-13T11:40:20.633Z,151112.00
2024-02-13T11:42:22.299Z,151118.34
2024-02-13T11:44:24.287Z,151124.66
2024-02-13T11:46:25.891Z,151009.75
2024-02-13T11:48:31.580Z,151008.50
2024-02-13T11:50:36.794Z,150964.38
2024-02-13T11:52:38.628Z,151062.78
2024-02-13T11:54:40.385Z,150958.06
2024-02-13T11:56:42.400Z,150942.94
2024-02-13T11:58:44.146Z,151000.97
2024-02-13T12:00:56.103Z,150892.47
2024-02-13T12:02:58.162Z,150997.16
2024-02-13T12:05:00.079Z,150989.59
2024-02-13T12:07:02.020Z,151007.22
2024-02-13T12:09:03.941Z,151002.22
2024-02-13T12:11:05.943Z,150982.03
2024-02-13T12:13:07.609Z,150953.00
2024-02-13T12:15:09.801Z,151071.59
2024-02-13T12:17:12.287Z,151089.28
2024-02-13T12:19:15.665Z,151062.78
2024-02-13T12:21:17.171Z,151094.34
2024-02-13T12:23:19.175Z,151129.72
2024-02-13T12:25:20.936Z,151069.06
2024-02-13T12:27:22.415Z,151026.19
2024-02-13T12:29:25.529Z,151000.97
2024-02-13T12:31:29.365Z,150980.78
2024-02-13T12:33:31.280Z,150964.38
2024-02-13T12:35:33.587Z,150989.59
2024-02-13T12:37:35.294Z,150950.47
2024-02-13T12:39:36.927Z,150945.44
2024-02-13T12:41:38.608Z,150892.47
2024-02-13T12:43:40.232Z,150965.66
2024-02-13T12:45:44.874Z,151018.63
2024-02-13T12:47:47.210Z,151003.50
2024-02-13T12:49:49.315Z,150970.66
2024-02-13T12:51:50.960Z,150931.56
2024-02-13T12:53:52.696Z,150922.75
2024-02-13T12:55:54.327Z,150932.84
2024-02-13T12:57:55.797Z,150901.31
2024-02-13T12:59:57.528Z,151014.81
2024-02-13T13:01:59.397Z,150973.19
2024-02-13T13:04:00.915Z,150929.03
2024-02-13T13:06:02.745Z,150929.03
2024-02-13T13:08:04.676Z,150932.84
2024-02-13T13:10:06.607Z,150912.66
2024-02-13T13:12:09.813Z,150900.06
2024-02-13T13:14:13.529Z,150886.16
2024-02-13T13:16:14.959Z,150925.25
2024-02-13T13:18:17.994Z,150868.50
2024-02-13T13:20:21.288Z,150879.88
2024-02-13T13:22:22.786Z,150917.72
2024-02-13T13:24:24.427Z,150865.97
2024-02-13T13:26:26.884Z,150831.94
2024-02-13T13:28:28.514Z,150869.78
2024-02-13T13:30:30.407Z,150906.31
2024-02-13T13:32:32.424Z,150903.84
2024-02-13T13:34:34.199Z,150941.69
2024-02-13T13:36:36.422Z,150939.16
2024-02-13T13:38:38.023Z,150884.88
2024-02-13T13:40:40.116Z,150881.16
2024-02-13T13:42:41.734Z,150887.41
2024-02-13T13:44:43.227Z,150834.47
2024-02-13T13:46:44.702Z,150873.56
2024-02-13T13:48:46.430Z,150905.06
2024-02-13T13:50:48.772Z,150921.50
2024-02-13T13:52:52.160Z,150998.44
2024-02-13T13:54:53.886Z,150915.19
2024-02-13T13:56:55.442Z,150927.78
2024-02-13T13:58:57.041Z,150973.19
2024-02-13T14:01:02.061Z,150974.47
2024-02-13T14:03:06.778Z,150941.69
2024-02-13T14:05:08.429Z,150917.72
2024-02-13T14:07:09.945Z,150879.88
2024-02-13T14:09:11.739Z,150837.00
2024-02-13T14:11:13.208Z,150842.06
2024-02-13T14:13:14.839Z,150811.78
2024-02-13T14:15:16.660Z,150891.22
2024-02-13T14:17:18.257Z,150949.22
2024-02-13T14:19:20.094Z,150845.81
2024-02-13T14:21:22.126Z,150825.63
2024-02-13T14:23:23.712Z,150794.13
2024-02-13T14:25:25.353Z,150878.63
2024-02-13T14:27:27.137Z,150862.22
2024-02-13T14:29:28.651Z,150892.47
2024-02-13T14:31:30.147Z,150868.50
2024-02-13T14:33:31.939Z,150896.25
2024-02-13T14:35:34.890Z,150900.06
2024-02-13T14:37:36.549Z,150829.41
2024-02-13T14:39:38.570Z,150850.88
2024-02-13T14:41:40.110Z,150891.22
2024-02-13T14:43:41.760Z,150983.31
2024-02-13T14:45:43.464Z,150922.75
2024-02-13T14:47:45.020Z,150900.06
2024-02-13T14:49:47.138Z,150968.13
2024-02-13T14:51:49.106Z,150893.75
2024-02-13T14:53:50.682Z,150911.38
2024-02-13T14:55:52.512Z,150842.06
2024-02-13T14:58:06.059Z,150888.69
2024-02-13T15:00:14.477Z,150956.81
2024-02-13T15:02:16.386Z,150970.66
2024-02-13T15:04:18.175Z,150912.66
2024-02-13T15:06:22.796Z,150925.25
2024-02-13T15:08:25.101Z,150852.13
2024-02-13T15:10:26.830Z,150911.38
2024-02-13T15:12:28.289Z,150913.91
2024-02-13T15:14:30.185Z,150936.63
2024-02-13T15:16:31.689Z,150826.91
2024-02-13T15:18:34.020Z,150808.00
2024-02-13T15:20:35.676Z,150780.28
2024-02-13T15:22:37.306Z,150837.00
2024-02-13T15:24:39.364Z,150795.41
2024-02-13T15:26:40.879Z,150726.06
2024-02-13T15:28:42.600Z,150712.19
2024-02-13T15:30:44.194Z,150804.19
2024-02-13T15:32:45.819Z,150748.75
2024-02-13T15:34:47.473Z,150763.84
2024-02-13T15:36:48.941Z,150748.75
2024-02-13T15:38:50.622Z,150808.00
2024-02-13T15:40:52.514Z,150829.41
2024-02-13T15:42:53.996Z,150849.59
2024-02-13T15:44:55.658Z,150813.03
2024-02-13T15:46:57.211Z,150809.25
2024-02-13T15:48:58.841Z,150830.69
2024-02-13T15:51:00.861Z,150906.31
2024-02-13T15:53:02.415Z,150897.53
2024-02-13T15:55:04.070Z,150805.47
2024-02-13T15:57:05.810Z,150780.28
2024-02-13T15:59:07.368Z,150810.50
2024-02-13T16:01:08.869Z,150784.03
2024-02-13T16:03:10.689Z,150761.31
2024-02-13T16:05:12.492Z,150775.22
2024-02-13T16:07:18.278Z,150821.88
2024-02-13T16:09:21.730Z,150826.91
2024-02-13T16:11:23.317Z,150829.41
2024-02-13T16:13:27.498Z,150840.78
2024-02-13T16:15:30.127Z,150910.13
2024-02-13T16:17:32.044Z,150922.75
2024-02-13T16:19:33.653Z,150903.84
2024-02-13T16:21:35.202Z,150947.94
2024-02-13T16:23:37.043Z,150895.00
2024-02-13T16:25:38.562Z,150895.00
2024-02-13T16:27:41.158Z,150795.41
2024-02-13T16:29:42.882Z,150825.63
2024-02-13T16:31:44.421Z,150826.91
2024-02-13T16:33:46.102Z,150805.47
2024-02-13T16:35:48.100Z,150805.47
2024-02-13T16:37:49.617Z,150785.28
2024-02-13T16:39:51.102Z,150799.19
2024-02-13T16:41:53.772Z,150743.69
2024-02-13T16:43:55.320Z,150839.53
2024-02-13T16:45:57.010Z,150854.66
2024-02-13T16:47:58.772Z,150843.28
2024-02-13T16:50:00.470Z,150835.75
2024-02-13T16:52:02.797Z,150902.59
2024-02-13T16:54:04.927Z,150953.00
2024-02-13T16:56:06.835Z,150999.69
2024-02-13T16:58:08.358Z,150990.84
2024-02-13T17:00:11.054Z,151006.03
2024-02-13T17:02:12.553Z,151026.19
2024-02-13T17:04:14.325Z,150968.13
2024-02-13T17:06:16.134Z,150978.25
2024-02-13T17:08:17.787Z,151013.56
2024-02-13T17:10:19.536Z,150985.84
2024-02-13T17:12:21.133Z,150969.41
2024-02-13T17:14:22.603Z,151028.69
2024-02-13T17:16:24.233Z,151040.06
2024-02-13T17:18:26.066Z,151027.41
2024-02-13T17:20:27.682Z,151048.88
2024-02-13T17:22:29.289Z,151040.06
2024-02-13T17:24:30.990Z,150973.19
2024-02-13T17:26:32.520Z,150968.13
2024-02-13T17:28:34.140Z,150940.41
2024-02-13T17:30:35.868Z,150940.41
2024-02-13T17:32:37.425Z,150994.63
2024-02-13T17:34:39.367Z,150992.09
2024-02-13T17:36:41.017Z,150963.13
2024-02-13T17:38:42.889Z,150968.13
2024-02-13T17:40:44.581Z,150969.41
2024-02-13T17:42:46.047Z,150939.16
2024-02-13T17:44:47.713Z,150900.06
2024-02-13T17:46:49.387Z,150898.78
2024-02-13T17:48:51.057Z,150907.59
2024-02-13T17:50:52.858Z,150912.66
2024-02-13T17:52:54.346Z,150956.81
2024-02-13T17:54:55.946Z,150940.41
2024-02-13T17:56:57.608Z,150983.31
2024-02-13T17:58:59.268Z,150994.63
2024-02-13T18:01:00.785Z,150879.88
2024-02-13T18:03:02.567Z,150852.13
2024-02-13T18:05:04.244Z,150892.47
2024-02-13T18:07:05.781Z,150791.59
2024-02-13T18:09:07.707Z,150697.09
2024-02-13T18:11:09.376Z,150709.66
2024-02-13T18:13:10.838Z,150767.66
2024-02-13T18:15:12.613Z,150709.66
2024-02-13T18:17:14.226Z,150746.22
2024-02-13T18:19:15.946Z,150716.00
2024-02-13T18:21:17.784Z,150728.56
2024-02-13T18:23:19.527Z,150685.72
2024-02-13T18:25:21.040Z,150727.31
2024-02-13T18:27:22.951Z,150737.41
2024-02-13T18:29:24.579Z,150688.25
2024-02-13T18:31:26.053Z,150751.28
2024-02-13T18:33:27.788Z,150713.47
2024-02-13T18:35:29.550Z,150695.81
2024-02-13T18:37:31.051Z,150753.78
2024-02-13T18:39:32.648Z,150732.38
2024-02-13T18:41:34.333Z,150738.69
2024-02-13T18:43:35.840Z,150752.53
2024-02-13T18:45:37.338Z,150766.38
2024-02-13T18:47:38.926Z,150756.31
2024-02-13T18:49:40.495Z,150748.75
2024-02-13T18:51:42.109Z,150760.13
2024-02-13T18:53:43.649Z,150761.31
2024-02-13T18:55:45.108Z,150757.59
2024-02-13T18:57:46.849Z,150773.97
2024-02-13T18:59:48.814Z,150780.28
2024-02-13T19:01:50.442Z,150763.84
2024-02-13T19:03:52.125Z,150767.66
2024-02-13T19:05:53.831Z,150779.03
2024-02-13T19:07:55.434Z,150818.09
2024-02-13T19:09:57.369Z,150829.41
2024-02-13T19:11:59.012Z,150773.97
2024-02-13T19:14:00.687Z,150751.28
2024-02-13T19:16:02.167Z,150686.97
2024-02-13T19:18:04.260Z,150717.25
2024-02-13T19:20:06.642Z,150712.19
2024-02-13T19:22:08.152Z,150747.47
2024-02-13T19:24:10.457Z,150718.53
2024-02-13T19:26:11.946Z,150692.03
2024-02-13T19:28:13.687Z,150670.59
2024-02-13T19:30:15.398Z,150716.00
2024-02-13T19:32:16.869Z,150727.31
2024-02-13T19:34:18.777Z,150655.50
2024-02-13T19:36:20.671Z,150732.38
2024-02-13T19:38:22.238Z,150739.94
2024-02-13T19:40:23.928Z,150678.19
2024-02-13T19:42:25.541Z,150679.41
2024-02-13T19:44:27.062Z,150683.19
2024-02-13T19:46:28.665Z,150692.03
2024-02-13T19:48:30.459Z,150685.72
2024-02-13T19:50:32.110Z,150693.28
2024-02-13T19:52:33.681Z,150708.41
2024-02-13T19:54:35.196Z,150739.94
2024-02-13T19:56:36.877Z,150721.00
2024-02-13T19:58:38.381Z,150714.72
2024-02-13T20:00:39.860Z,150699.56
2024-02-13T20:02:41.376Z,150676.94
2024-02-13T20:04:42.971Z,150714.72
2024-02-13T20:06:44.997Z,150739.94
2024-02-13T20:08:46.598Z,150727.31
2024-02-13T20:10:48.188Z,150713.47
2024-02-13T20:12:50.068Z,150741.16
2024-02-13T20:14:51.600Z,150704.63
2024-02-13T20:16:53.094Z,150741.16
2024-02-13T20:18:54.946Z,150752.53
2024-02-13T20:20:56.521Z,150733.63
2024-02-13T20:22:58.129Z,150723.53
2024-02-13T20:24:59.604Z,150743.69
2024-02-13T20:27:02.001Z,150732.38
2024-02-13T20:29:03.642Z,150713.47
2024-02-13T20:31:05.156Z,150767.66
2024-02-13T20:33:06.714Z,150796.66
2024-02-13T20:35:08.634Z,150771.44
2024-02-13T20:37:10.780Z,150751.28
2024-02-13T20:39:12.309Z,150753.78
2024-02-13T20:41:13.995Z,150736.16
2024-02-13T20:43:15.650Z,150686.97
2024-02-13T20:45:22.378Z,150686.97
2024-02-13T20:47:25.655Z,150733.63
2024-02-13T20:49:27.277Z,150693.28
2024-02-13T20:51:32.833Z,150731.09
2024-02-13T20:53:34.481Z,150676.94
2024-02-13T20:55:35.973Z,150719.78
2024-02-13T20:57:37.423Z,150744.94
2024-02-13T20:59:39.051Z,150686.97
2024-02-13T21:01:40.695Z,150705.88
2024-02-13T21:03:42.168Z,150746.22
2024-02-13T21:05:43.708Z,150732.38
2024-02-13T21:07:45.337Z,150714.72
2024-02-13T21:09:47.419Z,150668.09
2024-02-13T21:11:49.066Z,150716.00
2024-02-13T21:13:50.697Z,150718.53
2024-02-13T21:15:52.164Z,150703.34
2024-02-13T21:17:53.872Z,150681.94
2024-02-13T21:19:55.595Z,150700.84
2024-02-13T21:21:57.118Z,150714.72
2024-02-13T21:23:58.648Z,150703.34
2024-02-13T21:26:00.129Z,150636.59
2024-02-13T21:28:01.575Z,150602.56
2024-02-13T21:30:03.777Z,150615.19
2024-02-13T21:32:05.620Z,150621.44
2024-02-13T21:34:07.563Z,150666.81
2024-02-13T21:36:09.664Z,150606.34
2024-02-13T21:38:14.373Z,150697.09
2024-02-13T21:40:16.262Z,150684.47
2024-02-13T21:42:18.002Z,150645.41
2024-02-13T21:44:19.551Z,150679.41
2024-02-13T21:46:21.038Z,150721.00
2024-02-13T21:48:22.919Z,150721.00
2024-02-13T21:50:24.761Z,150659.25
2024-02-13T21:52:26.289Z,150703.34
2024-02-13T21:54:28.079Z,150690.78
2024-02-13T21:56:29.711Z,150714.72
2024-02-13T21:58:31.241Z,150663.03
2024-02-13T22:00:32.981Z,150666.81
2024-02-13T22:02:34.887Z,150689.50
2024-02-13T22:04:36.428Z,150639.06
2024-02-13T22:06:38.025Z,150660.50
2024-02-13T22:08:39.737Z,150645.41
2024-02-13T22:10:41.212Z,150637.88
2024-02-13T22:12:45.247Z,150651.72
2024-02-13T22:14:48.669Z,150646.66
2024-02-13T22:16:50.129Z,150659.25
2024-02-13T22:18:51.979Z,150613.91
2024-02-13T22:20:54.095Z,150591.22
2024-02-13T22:22:55.718Z,150593.75
2024-02-13T22:24:57.373Z,150622.72
2024-02-13T22:26:59.317Z,150620.19
2024-02-13T22:29:00.834Z,150533.28
2024-02-13T22:31:02.468Z,150521.94
2024-02-13T22:33:04.257Z,150547.13
2024-02-13T22:35:06.404Z,150506.81
2024-02-13T22:37:08.100Z,150469.00
2024-02-13T22:39:09.848Z,150521.94
2024-02-13T22:41:11.597Z,150489.19
2024-02-13T22:43:13.091Z,150486.66
2024-02-13T22:45:14.650Z,150492.97
2024-02-13T22:47:16.262Z,150490.47
2024-02-13T22:49:17.767Z,150443.81
2024-02-13T22:51:19.501Z,150392.19
2024-02-13T22:53:21.102Z,150351.88
2024-02-13T22:55:22.683Z,150311.59
2024-02-13T22:57:24.420Z,150325.47
2024-02-13T22:59:26.042Z,150305.31
2024-02-13T23:01:27.647Z,150297.75
2024-02-13T23:03:35.413Z,150302.78
2024-02-13T23:05:37.124Z,150340.56
2024-02-13T23:07:45.328Z,150341.81
2024-02-13T23:09:47.331Z,150325.47
2024-02-13T23:11:48.976Z,150282.66
2024-02-13T23:13:51.532Z,150258.75